Time;durP1;ratioP1;P1;durP2;ratioP2;P2;SDS_P1;SDS_P2;PMS_P1;PMS_P2;Temp;Humidity;BMP_temperature;BMP_pressure;BME280_temperature;BME280_humidity;BME280_pressure;Samples;Min_cycle;Max_cycle;Signal;HPM_P1;HPM_P2
2023/08/11 00:00:48;;;;;;;4.33;2.93;;;;;;;17.81;100.00;99511.91;5108348;28;20196;-58
2023/08/11 00:03:16;;;;;;;4.13;3.10;;;;;;;17.74;100.00;99510.03;5108435;28;20672;-59
2023/08/11 00:05:43;;;;;;;5.13;3.53;;;;;;;17.74;100.00;99516.00;5108345;28;20231;-59
2023/08/11 00:08:13;;;;;;;4.70;3.13;;;;;;;17.70;100.00;99509.50;5108325;28;20200;-59
2023/08/11 00:10:41;;;;;;;4.83;3.13;;;;;;;17.72;100.00;99517.13;5108418;28;20234;-58
2023/08/11 00:13:12;;;;;;;4.80;3.37;;;;;;;17.73;100.00;99518.75;5108243;28;20667;-58
2023/08/11 00:15:40;;;;;;;5.63;3.20;;;;;;;17.81;100.00;99511.91;5108184;28;20242;-59
2023/08/11 00:18:09;;;;;;;9.27;3.67;;;;;;;17.82;100.00;99518.72;5108174;28;20208;-58
2023/08/11 00:20:36;;;;;;;4.93;3.43;;;;;;;17.84;100.00;99514.22;5108354;28;20418;-58
2023/08/11 00:23:03;;;;;;;5.10;3.10;;;;;;;17.86;100.00;99514.88;5108169;28;20676;-58
2023/08/11 00:25:30;;;;;;;4.40;3.00;;;;;;;17.88;100.00;99520.72;5108051;28;20640;-59
2023/08/11 00:27:58;;;;;;;5.30;2.93;;;;;;;17.86;100.00;99520.06;5108165;28;20204;-59
2023/08/11 00:30:25;;;;;;;6.33;3.30;;;;;;;17.85;100.00;99523.59;5108182;28;20713;-59
2023/08/11 00:32:52;;;;;;;5.07;3.03;;;;;;;17.88;100.00;99514.72;5110978;28;20220;-58
2023/08/11 00:35:19;;;;;;;6.10;3.10;;;;;;;17.91;100.00;99516.22;5112146;28;20195;-59
2023/08/11 00:37:46;;;;;;;4.67;3.07;;;;;;;17.92;100.00;99517.81;5112271;28;20198;-59
2023/08/11 00:40:13;;;;;;;4.20;2.90;;;;;;;17.90;100.00;99519.78;5112488;28;20230;-59
2023/08/11 00:42:41;;;;;;;3.50;2.80;;;;;;;17.87;100.00;99513.91;5112024;28;20214;-58
2023/08/11 00:45:10;;;;;;;4.83;3.10;;;;;;;17.77;100.00;99525.25;5112407;28;20248;-58
2023/08/11 00:47:42;;;;;;;3.93;2.77;;;;;;;17.81;100.00;99516.28;5112028;28;20200;-58
2023/08/11 00:50:10;;;;;;;4.20;2.90;;;;;;;17.77;100.00;99515.75;5112056;28;20257;-58
2023/08/11 00:52:38;;;;;;;4.47;3.13;;;;;;;17.77;100.00;99515.75;5112208;28;20193;-58
2023/08/11 00:55:08;;;;;;;4.00;2.80;;;;;;;17.78;100.00;99504.47;5112181;28;20205;-59
2023/08/11 00:57:36;;;;;;;3.57;2.60;;;;;;;17.80;100.00;99505.13;5112369;28;20193;-59
2023/08/11 01:00:11;;;;;;;3.37;2.67;;;;;;;17.79;100.00;99503.50;5112087;28;20199;-59
2023/08/11 01:02:41;;;;;;;4.10;3.00;;;;;;;17.79;100.00;99498.31;5111660;28;20227;-58
2023/08/11 01:05:09;;;;;;;4.40;2.90;;;;;;;17.74;100.00;99500.50;5111737;28;20737;-58
2023/08/11 01:07:42;;;;;;;4.57;3.20;;;;;;;17.70;100.00;99506.94;5111648;28;20210;-58
2023/08/11 01:10:17;;;;;;;4.57;2.93;;;;;;;17.70;100.00;99501.75;5111752;28;20204;-58
2023/08/11 01:12:57;;;;;;;3.93;2.87;;;;;;;17.71;100.00;99503.38;5111582;28;20203;-59
2023/08/11 01:15:30;;;;;;;5.10;2.90;;;;;;;17.71;100.00;99500.78;5111752;28;20198;-58
2023/08/11 01:18:00;;;;;;;4.97;3.10;;;;;;;17.64;100.00;99504.94;5111652;28;20217;-59
2023/08/11 01:20:27;;;;;;;3.77;2.73;;;;;;;17.63;100.00;99509.28;5111566;28;20207;-58
2023/08/11 01:23:00;;;;;;;3.53;2.87;;;;;;;17.56;100.00;99503.06;5111415;28;20208;-59
2023/08/11 01:25:29;;;;;;;5.20;3.40;;;;;;;17.52;100.00;99512.06;5111437;28;20239;-58
2023/08/11 01:27:57;;;;;;;4.53;3.10;;;;;;;17.45;100.00;99515.38;5111462;28;20293;-58
2023/08/11 01:30:24;;;;;;;6.67;3.17;;;;;;;17.48;100.00;99512.50;5111357;28;20199;-58
2023/08/11 01:32:52;;;;;;;4.17;3.00;;;;;;;17.51;100.00;99509.63;5111379;28;20204;-58
2023/08/11 01:35:19;;;;;;;4.97;3.40;;;;;;;17.51;100.00;99514.78;5111111;28;20272;-58
2023/08/11 01:37:47;;;;;;;5.40;3.53;;;;;;;17.54;100.00;99514.50;5111034;28;20260;-58
2023/08/11 01:40:14;;;;;;;4.87;3.37;;;;;;;17.61;100.00;99518.16;5110978;28;20202;-58
2023/08/11 01:42:44;;;;;;;5.20;3.37;;;;;;;17.68;100.00;99526.94;5110729;28;20680;-58
2023/08/11 01:45:13;;;;;;;6.53;3.40;;;;;;;17.74;100.00;99521.19;5110810;28;20205;-58
2023/08/11 01:47:44;;;;;;;5.10;3.67;;;;;;;17.78;100.00;99522.56;5110990;28;20197;-59
2023/08/11 01:50:13;;;;;;;5.37;3.60;;;;;;;17.83;100.00;99525.53;5111057;28;20202;-58
2023/08/11 01:52:43;;;;;;;5.63;3.50;;;;;;;17.80;100.00;99525.81;5111016;27;20292;-58
2023/08/11 01:55:10;;;;;;;4.67;3.27;;;;;;;17.82;100.00;99526.47;5110726;28;20215;-59
2023/08/11 01:57:38;;;;;;;5.87;3.47;;;;;;;17.84;100.00;99532.31;5110827;28;20200;-58
2023/08/11 02:00:13;;;;;;;5.33;3.47;;;;;;;17.84;100.00;99532.31;5110567;28;20634;-58
2023/08/11 02:02:40;;;;;;;4.77;3.60;;;;;;;17.78;100.00;99525.16;5110807;28;20770;-58
2023/08/11 02:05:11;;;;;;;5.60;3.70;;;;;;;17.74;100.00;99525.53;5110758;28;20212;-58
2023/08/11 02:07:38;;;;;;;5.00;3.53;;;;;;;17.65;100.00;99527.22;5110581;28;20196;-59
2023/08/11 02:10:06;;;;;;;5.13;3.60;;;;;;;17.61;100.00;99518.97;5110406;28;20688;-58
2023/08/11 02:12:33;;;;;;;6.57;4.03;;;;;;;17.61;100.00;99510.41;5110865;28;20321;-58
2023/08/11 02:15:00;;;;;;;6.40;3.50;;;;;;;17.58;100.00;99515.84;5110310;28;20206;-59
2023/08/11 02:17:31;;;;;;;5.27;3.73;;;;;;;17.56;100.00;99510.00;5110938;28;20269;-58
2023/08/11 02:19:58;;;;;;;5.20;3.70;;;;;;;17.58;100.00;99516.66;5110637;28;20629;-58
2023/08/11 02:22:25;;;;;;;5.37;3.60;;;;;;;17.56;100.00;99510.00;5110168;28;20206;-58
2023/08/11 02:24:51;;;;;;;6.10;4.23;;;;;;;17.56;100.00;99515.19;5110230;28;20204;-59
2023/08/11 02:27:18;;;;;;;5.03;3.70;;;;;;;17.53;100.00;99502.53;5110442;28;20616;-58
2023/08/11 02:29:45;;;;;;;5.07;3.93;;;;;;;17.51;100.00;99509.63;5110387;28;20215;-59
2023/08/11 02:32:12;;;;;;;4.47;3.40;;;;;;;17.52;100.00;99511.28;5110270;28;20195;-58
2023/08/11 02:34:41;;;;;;;4.73;3.67;;;;;;;17.54;100.00;99510.16;5110293;28;20292;-58
2023/08/11 02:37:09;;;;;;;10.37;3.77;;;;;;;17.56;100.00;99510.81;5109759;28;20191;-58
2023/08/11 02:39:36;;;;;;;5.70;4.20;;;;;;;17.58;100.00;99505.50;5110208;28;20214;-58
2023/08/11 02:42:03;;;;;;;11.37;4.03;;;;;;;17.57;100.00;99503.88;5109863;28;20197;-59
2023/08/11 02:44:30;;;;;;;4.90;3.73;;;;;;;17.53;100.00;99500.75;5109977;28;20208;-58
2023/08/11 02:46:57;;;;;;;7.67;4.30;;;;;;;17.56;100.00;99503.06;5109472;28;20285;-58
2023/08/11 02:49:24;;;;;;;5.87;4.07;;;;;;;17.48;100.00;99504.75;5109678;28;20237;-58
2023/08/11 02:51:52;;;;;;;6.87;4.47;;;;;;;17.43;100.00;99500.84;5109726;28;20202;-58
2023/08/11 02:54:19;;;;;;;7.80;4.60;;;;;;;17.49;100.00;99501.22;5109227;27;20200;-58
2023/08/11 02:56:47;;;;;;;9.73;4.77;;;;;;;17.51;100.00;99501.88;5109331;28;20195;-58
2023/08/11 02:59:14;;;;;;;5.27;4.00;;;;;;;17.57;100.00;99501.28;5109485;28;20601;-58
2023/08/11 03:01:41;;;;;;;7.83;4.03;;;;;;;17.57;100.00;99503.88;5109214;28;20586;-58
2023/08/11 03:04:08;;;;;;;6.53;4.30;;;;;;;17.56;100.00;99497.09;5109357;28;20665;-58
2023/08/11 03:06:35;;;;;;;6.67;4.20;;;;;;;17.55;100.00;99500.63;5109181;28;20241;-58
2023/08/11 03:09:04;;;;;;;8.93;3.90;;;;;;;17.57;100.00;99493.53;5109514;28;20198;-58
2023/08/11 03:11:31;;;;;;;5.77;4.23;;;;;;;17.58;100.00;99490.00;5109046;28;20700;-58
2023/08/11 03:13:58;;;;;;;7.67;4.57;;;;;;;17.53;100.00;99487.03;5109616;28;20311;-58
2023/08/11 03:16:25;;;;;;;7.53;4.40;;;;;;;17.47;100.00;99485.84;5109196;27;20202;-58
2023/08/11 03:18:52;;;;;;;5.97;3.93;;;;;;;17.48;100.00;99479.69;5109474;28;20636;-58
2023/08/11 03:21:19;;;;;;;5.70;3.97;;;;;;;17.43;100.00;99484.50;5108988;28;20267;-58
2023/08/11 03:23:46;;;;;;;7.00;4.27;;;;;;;17.42;100.00;99496.63;5108972;28;20724;-58
2023/08/11 03:26:14;;;;;;;5.57;4.27;;;;;;;17.43;100.00;99497.44;5109074;28;20231;-58
2023/08/11 03:28:41;;;;;;;6.80;4.97;;;;;;;17.42;100.00;99501.81;5109037;28;20200;-58
2023/08/11 03:31:08;;;;;;;6.23;4.60;;;;;;;17.40;100.00;99503.72;5109357;28;20204;-58
2023/08/11 03:33:35;;;;;;;6.77;4.67;;;;;;;17.35;100.00;99498.16;5108909;28;20604;-58
2023/08/11 03:36:02;;;;;;;7.53;4.43;;;;;;;17.33;100.00;99504.41;5108768;28;20226;-58
2023/08/11 03:38:29;;;;;;;6.70;4.63;;;;;;;17.32;100.00;99503.59;5108854;28;20203;-59
2023/08/11 03:40:56;;;;;;;6.43;4.40;;;;;;;17.24;100.00;99503.50;5108823;28;20204;-58
2023/08/11 03:43:24;;;;;;;7.40;4.53;;;;;;;17.26;100.00;99506.78;5108942;28;20715;-58
2023/08/11 03:45:51;;;;;;;8.20;4.20;;;;;;;17.30;100.00;99509.88;5108641;28;20227;-59
2023/08/11 03:48:18;;;;;;;7.70;4.93;;;;;;;17.28;100.00;99515.19;5108719;28;20528;-58
2023/08/11 03:50:45;;;;;;;7.13;4.70;;;;;;;17.32;100.00;99516.53;5108529;28;20671;-58
2023/08/11 03:53:13;;;;;;;7.23;4.73;;;;;;;17.37;100.00;99519.50;5108535;28;20623;-58
2023/08/11 03:55:40;;;;;;;5.77;4.40;;;;;;;17.48;100.00;99520.25;5108471;28;20195;-58
2023/08/11 03:58:07;;;;;;;6.60;4.50;;;;;;;17.52;100.00;99524.19;5108659;28;20214;-58
2023/08/11 04:00:36;;;;;;;6.70;4.63;;;;;;;17.57;100.00;99520.22;5106950;28;20566;-58
2023/08/11 04:03:04;;;;;;;6.47;4.53;;;;;;;17.62;100.00;99522.34;5107883;28;20600;-59
2023/08/11 04:05:30;;;;;;;9.53;4.67;;;;;;;17.66;100.00;99523.72;5108327;28;20197;-59
2023/08/11 04:07:57;;;;;;;9.27;4.90;;;;;;;17.70;100.00;99530.19;5107115;28;20738;-58
2023/08/11 04:10:24;;;;;;;7.13;4.63;;;;;;;17.74;100.00;99541.88;5108481;28;20210;-58
2023/08/11 04:12:51;;;;;;;6.77;4.37;;;;;;;17.77;100.00;99546.78;5108231;28;20207;-59
2023/08/11 04:15:18;;;;;;;7.70;4.50;;;;;;;17.78;100.00;99542.44;5108668;28;20197;-59
2023/08/11 04:17:47;;;;;;;6.70;4.47;;;;;;;17.75;100.00;99538.34;5108238;28;20707;-58
2023/08/11 04:20:14;;;;;;;6.20;4.67;;;;;;;17.74;100.00;99552.22;5108632;28;20205;-59
2023/08/11 04:22:41;;;;;;;6.27;4.87;;;;;;;17.76;100.00;99541.75;5108327;28;20312;-58
2023/08/11 04:25:10;;;;;;;7.23;4.20;;;;;;;17.76;100.00;99542.53;5107993;28;20204;-59
2023/08/11 04:27:37;;;;;;;7.40;4.53;;;;;;;17.77;100.00;99544.19;5108185;28;20236;-58
2023/08/11 04:30:05;;;;;;;6.83;4.43;;;;;;;17.77;100.00;99551.13;5108056;28;20707;-59
2023/08/11 04:32:32;;;;;;;6.33;4.43;;;;;;;17.79;100.00;99550.03;5108029;28;20200;-59
2023/08/11 04:35:00;;;;;;;6.20;4.20;;;;;;;17.90;100.00;99553.41;5108440;28;20210;-59
2023/08/11 04:37:27;;;;;;;8.07;5.03;;;;;;;17.97;100.00;99551.84;5108436;28;20249;-59
2023/08/11 04:39:54;;;;;;;6.80;4.53;;;;;;;17.97;100.00;99559.59;5108073;28;20201;-59
2023/08/11 04:42:21;;;;;;;5.40;4.33;;;;;;;17.96;100.00;99561.38;5108230;28;20207;-59
2023/08/11 04:44:48;;;;;;;7.07;4.87;;;;;;;18.01;100.00;99553.19;5108350;28;20194;-59
2023/08/11 04:47:14;;;;;;;7.20;4.63;;;;;;;18.02;100.00;99559.97;5107838;28;20235;-59
2023/08/11 04:49:41;;;;;;;6.20;4.53;;;;;;;17.97;100.00;99557.81;5108264;28;20209;-59
2023/08/11 04:52:10;;;;;;;8.97;4.80;;;;;;;17.96;100.00;99557.97;5107830;28;20295;-58
2023/08/11 04:54:37;;;;;;;5.57;4.20;;;;;;;17.95;100.00;99569.28;5108149;28;20203;-59
2023/08/11 04:57:04;;;;;;;6.73;4.37;;;;;;;17.88;100.00;99569.06;5107962;28;20588;-59
2023/08/11 04:59:30;;;;;;;5.93;4.53;;;;;;;17.95;100.00;99574.44;5108035;28;20213;-59
2023/08/11 05:01:58;;;;;;;6.67;4.57;;;;;;;17.99;100.00;99580.97;5108305;28;20196;-59
2023/08/11 05:04:25;;;;;;;6.93;4.27;;;;;;;17.96;100.00;99573.50;5107956;28;20613;-59
2023/08/11 05:06:52;;;;;;;7.43;4.40;;;;;;;17.98;100.00;99574.19;5107865;28;20233;-59
2023/08/11 05:09:20;;;;;;;6.30;4.17;;;;;;;17.99;100.00;99580.97;5107987;28;20209;-59
2023/08/11 05:11:47;;;;;;;6.13;4.47;;;;;;;17.95;100.00;99579.63;5107857;28;20208;-59
2023/08/11 05:14:15;;;;;;;5.53;3.90;;;;;;;18.02;100.00;99580.69;5107579;28;20209;-59
2023/08/11 05:16:42;;;;;;;5.30;4.07;;;;;;;18.06;100.00;99576.81;5107992;28;20200;-60
2023/08/11 05:19:09;;;;;;;7.90;4.57;;;;;;;18.12;100.00;99581.41;5110716;28;20210;-60
2023/08/11 05:21:37;;;;;;;7.47;4.17;;;;;;;18.22;100.00;99582.16;5111409;28;20197;-59
2023/08/11 05:24:05;;;;;;;5.20;3.77;;;;;;;18.32;100.00;99588.09;5111532;28;20648;-59
2023/08/11 05:26:34;;;;;;;5.83;4.30;;;;;;;18.33;100.00;99584.53;5111786;28;20228;-59
2023/08/11 05:29:01;;;;;;;5.23;3.60;;;;;;;18.29;100.00;99577.22;5111737;28;20209;-59
2023/08/11 05:31:28;;;;;;;7.90;3.90;;;;;;;18.23;100.00;99583.78;5111868;28;20198;-58
2023/08/11 05:33:54;;;;;;;7.17;4.13;;;;;;;18.35;100.00;99586.16;5111334;28;20586;-59
2023/08/11 05:36:21;;;;;;;6.93;4.10;;;;;;;18.46;100.00;99585.94;5111599;28;20195;-59
2023/08/11 05:38:48;;;;;;;5.50;3.80;;;;;;;18.49;100.00;99594.22;5111259;28;20198;-60
2023/08/11 05:41:15;;;;;;;6.43;4.27;;;;;;;18.58;100.00;99592.50;5110913;28;20197;-59
2023/08/11 05:43:43;;;;;;;6.17;4.30;;;;;;;18.67;100.00;99594.19;5111124;28;20206;-59
2023/08/11 05:46:10;;;;;;;5.77;3.90;;;;;;;18.77;100.00;99596.75;5111050;28;20671;-59
2023/08/11 05:48:37;;;;;;;5.17;3.90;;;;;;;18.84;100.00;99597.75;5110914;28;20260;-59
2023/08/11 05:51:04;;;;;;;6.40;4.40;;;;;;;18.90;100.00;99606.69;5111321;28;20220;-59
2023/08/11 05:53:31;;;;;;;5.60;4.30;;;;;;;18.99;100.00;99605.78;5110809;28;20207;-59
2023/08/11 05:55:58;;;;;;;5.97;4.20;;;;;;;19.06;100.00;99601.63;5110778;28;20214;-59
2023/08/11 05:58:25;;;;;;;5.60;3.87;;;;;;;19.04;100.00;99598.38;5110759;28;20223;-59
2023/08/11 06:00:53;;;;;;;6.33;4.10;;;;;;;19.02;100.00;99595.09;5110721;28;20223;-59
2023/08/11 06:03:20;;;;;;;6.00;3.97;;;;;;;19.17;100.00;99603.97;5111024;28;20637;-60
2023/08/11 06:05:47;;;;;;;8.90;5.37;;;;;;;19.31;100.00;99604.34;5110629;28;20668;-59
2023/08/11 06:08:13;;;;;;;19.33;10.13;;;;;;;19.33;100.00;99605.81;5110372;28;20231;-59
2023/08/11 06:10:40;;;;;;;9.70;5.20;;;;;;;19.42;100.00;99606.66;5110938;28;20204;-60
2023/08/11 06:13:07;;;;;;;5.20;3.83;;;;;;;19.52;100.00;99617.75;5110745;28;20200;-60
2023/08/11 06:15:34;;;;;;;6.60;4.40;;;;;;;19.59;100.00;99612.75;5110397;28;20738;-60
2023/08/11 06:18:02;;;;;;;5.70;3.90;;;;;;;19.65;100.00;99605.19;5110510;28;20203;-59
2023/08/11 06:20:29;;;;;;;7.30;3.97;;;;;;;19.67;100.00;99611.03;5110735;28;20697;-59
2023/08/11 06:22:56;;;;;;;7.53;4.30;;;;;;;19.76;100.00;99613.66;5110422;28;20208;-59
2023/08/11 06:25:23;;;;;;;4.17;3.57;;;;;;;19.78;100.00;99622.09;5110290;28;20208;-59
2023/08/11 06:27:50;;;;;;;6.57;3.70;;;;;;;19.84;100.00;99609.31;5110131;28;20235;-59
2023/08/11 06:30:17;;;;;;;7.33;3.53;;;;;;;19.82;100.00;99618.22;5109221;28;20478;-59
2023/08/11 06:32:44;;;;;;;6.00;4.13;;;;;;;19.86;100.00;99619.53;5110318;28;20617;-60
2023/08/11 06:35:12;;;;;;;6.50;4.20;;;;;;;19.85;100.00;99620.50;5110182;28;20198;-59
2023/08/11 06:37:39;;;;;;;4.77;3.87;;;;;;;19.90;100.00;99623.44;5110463;28;20740;-59
2023/08/11 06:40:08;;;;;;;5.13;3.70;;;;;;;20.00;100.00;99624.09;5109710;28;20766;-59
2023/08/11 06:42:35;;;;;;;73.10;33.13;;;;;;;20.06;100.00;99627.84;5110147;28;20663;-59
2023/08/11 06:45:02;;;;;;;7.53;5.27;;;;;;;20.03;100.00;99631.56;5109955;27;20204;-59
2023/08/11 06:47:31;;;;;;;8.60;5.23;;;;;;;20.06;100.00;99635.63;5109868;28;20241;-60
2023/08/11 06:49:57;;;;;;;8.63;5.03;;;;;;;20.30;100.00;99635.72;5110189;28;20207;-59
2023/08/11 06:52:26;;;;;;;5.97;3.70;;;;;;;20.53;100.00;99642.88;5109874;28;20207;-60
2023/08/11 06:54:53;;;;;;;6.43;4.20;;;;;;;20.62;100.00;99646.31;5109798;28;20203;-59
2023/08/11 06:57:20;;;;;;;5.73;4.00;;;;;;;20.76;100.00;99643.88;5109660;28;20622;-60
2023/08/11 06:59:47;;;;;;;5.30;3.93;;;;;;;20.84;100.00;99652.66;5109602;28;20253;-60
2023/08/11 07:02:15;;;;;;;11.73;4.80;;;;;;;20.96;100.00;99649.53;5109567;28;20203;-60
2023/08/11 07:04:41;;;;;;;7.57;4.27;;;;;;;21.27;100.00;99648.06;5109938;28;20197;-60
2023/08/11 07:07:08;;;;;;;5.27;3.93;;;;;;;21.51;100.00;99648.00;5109481;28;20259;-60
2023/08/11 07:09:37;;;;;;;4.93;3.90;;;;;;;21.71;100.00;99653.63;5110114;28;20200;-60
2023/08/11 07:12:05;;;;;;;4.73;3.70;;;;;;;21.75;100.00;99660.09;5109425;28;20206;-60
2023/08/11 07:14:32;;;;;;;4.53;3.80;;;;;;;21.80;100.00;99670.84;5109263;28;20198;-60
2023/08/11 07:17:00;;;;;;;4.63;3.72;;;;;;;21.91;100.00;99665.25;5109732;28;20193;-60
2023/08/11 07:19:27;;;;;;;5.38;4.18;;;;;;;22.01;100.00;99669.44;5109526;28;20210;-60
2023/08/11 07:21:53;;;;;;;6.90;4.35;;;;;;;22.02;100.00;99665.84;5109498;28;20683;-59
2023/08/11 07:24:20;;;;;;;6.55;4.07;;;;;;;22.12;100.00;99661.25;5109171;28;20685;-60
2023/08/11 07:26:48;;;;;;;5.68;4.32;;;;;;;22.14;100.00;99661.91;5109057;28;20205;-60
2023/08/11 07:29:15;;;;;;;5.93;4.40;;;;;;;22.62;100.00;99662.56;5108981;28;20569;-60
2023/08/11 07:31:42;;;;;;;8.13;4.10;;;;;;;22.77;100.00;99670.44;5109143;28;20670;-59
2023/08/11 07:34:09;;;;;;;5.82;4.68;;;;;;;23.05;100.00;99668.13;5109093;28;20193;-60
2023/08/11 07:36:36;;;;;;;5.30;4.07;;;;;;;23.17;100.00;99674.50;5109190;28;20232;-60
2023/08/11 07:39:03;;;;;;;5.35;3.97;;;;;;;23.33;100.00;99675.34;5108778;28;20193;-60
2023/08/11 07:41:30;;;;;;;5.53;4.35;;;;;;;23.61;100.00;99681.56;5108784;28;20205;-60
2023/08/11 07:43:58;;;;;;;6.10;4.35;;;;;;;23.88;100.00;99681.91;5108717;28;20204;-59
2023/08/11 07:46:25;;;;;;;7.40;4.88;;;;;;;24.25;100.00;99674.91;5108777;28;20197;-60
2023/08/11 07:48:52;;;;;;;10.27;5.00;;;;;;;24.17;100.00;99674.03;5108567;28;20709;-59
2023/08/11 07:51:18;;;;;;;13.07;8.20;;;;;;;24.31;100.00;99668.94;5108519;28;20197;-59
2023/08/11 07:53:45;;;;;;;6.72;5.38;;;;;;;24.68;100.00;99670.53;5108784;28;20200;-59
2023/08/11 07:56:14;;;;;;;7.15;5.05;;;;;;;24.88;100.00;99681.16;5108648;28;20203;-60
2023/08/11 07:58:41;;;;;;;7.78;3.22;;;;;;;25.23;100.00;99673.41;5108598;28;20251;-59
2023/08/11 08:01:10;;;;;;;4.85;2.97;;;;;;;25.41;94.51;99681.56;5108416;28;20669;-60
2023/08/11 08:03:38;;;;;;;4.30;3.10;;;;;;;24.85;85.09;99684.16;5108631;28;20939;-60
2023/08/11 08:06:05;;;;;;;4.20;3.38;;;;;;;25.05;88.50;99679.09;5108622;28;20274;-60
2023/08/11 08:08:33;;;;;;;3.63;3.20;;;;;;;25.11;95.82;99682.75;5108531;28;20236;-60
2023/08/11 08:11:01;;;;;;;6.35;3.67;;;;;;;25.01;87.79;99680.44;5108510;28;20205;-60
2023/08/11 08:13:27;;;;;;;4.07;3.33;;;;;;;25.05;89.25;99685.13;5108027;28;20213;-60
2023/08/11 08:15:54;;;;;;;4.47;3.40;;;;;;;25.00;89.38;99689.31;5107515;28;20581;-60
2023/08/11 08:18:23;;;;;;;5.05;3.05;;;;;;;25.22;94.92;99679.63;5107971;28;20257;-60
2023/08/11 08:20:50;;;;;;;5.65;3.53;;;;;;;25.55;100.00;99676.41;5108402;28;20212;-60
2023/08/11 08:23:17;;;;;;;4.38;3.70;;;;;;;25.79;94.65;99673.28;5108226;28;20193;-60
2023/08/11 08:25:43;;;;;;;5.15;4.15;;;;;;;26.02;91.81;99678.22;5108170;28;20197;-60
2023/08/11 08:28:11;;;;;;;4.35;3.75;;;;;;;26.30;92.60;99680.75;5108045;28;20232;-61
2023/08/11 08:30:38;;;;;;;5.03;3.70;;;;;;;26.49;89.96;99676.53;5108209;28;20212;-60
2023/08/11 08:33:07;;;;;;;5.03;3.65;;;;;;;26.57;89.88;99673.75;5108530;28;20565;-61
2023/08/11 08:35:35;;;;;;;5.88;3.85;;;;;;;26.61;90.07;99682.00;5108314;28;20849;-60
2023/08/11 08:38:02;;;;;;;4.95;3.63;;;;;;;26.61;80.97;99692.50;5108142;28;20678;-60
2023/08/11 08:40:29;;;;;;;7.82;3.55;;;;;;;26.81;88.33;99679.41;5108239;28;20230;-60
2023/08/11 08:42:56;;;;;;;5.25;4.10;;;;;;;27.02;82.01;99683.63;5108285;28;20205;-60
2023/08/11 08:45:24;;;;;;;4.70;3.67;;;;;;;27.06;80.46;99679.59;5108104;28;20223;-60
2023/08/11 08:47:54;;;;;;;4.72;3.60;;;;;;;27.21;82.25;99682.84;5108261;28;20261;-60
2023/08/11 08:50:23;;;;;;;3.80;2.85;;;;;;;27.08;74.53;99688.88;5108014;28;20209;-60
2023/08/11 08:52:53;;;;;;;3.75;3.17;;;;;;;27.05;76.23;99694.53;5108673;28;20305;-60
2023/08/11 08:55:20;;;;;;;3.80;3.00;;;;;;;27.35;76.06;99686.25;5112248;27;20247;-60
2023/08/11 08:57:47;;;;;;;3.55;2.95;;;;;;;27.59;72.67;99686.59;5112073;28;20197;-60
2023/08/11 09:00:15;;;;;;;4.15;3.03;;;;;;;27.74;76.75;99682.69;5111908;28;20205;-60
2023/08/11 09:02:43;;;;;;;5.60;3.83;;;;;;;27.76;77.50;99674.59;5112008;28;20197;-61
2023/08/11 09:05:11;;;;;;;5.10;3.15;;;;;;;27.87;75.28;99686.31;5112035;28;20201;-60
2023/08/11 09:07:38;;;;;;;3.53;3.22;;;;;;;28.21;76.76;99685.13;5111604;28;20543;-61
2023/08/11 09:10:08;;;;;;;4.57;3.00;;;;;;;28.67;80.47;99686.66;5111938;28;20202;-60
2023/08/11 09:12:35;;;;;;;3.95;3.00;;;;;;;28.61;72.07;99683.06;5112143;28;20265;-61
2023/08/11 09:15:07;;;;;;;3.63;3.00;;;;;;;28.54;66.49;99692.84;5112056;28;20204;-61
2023/08/11 09:17:37;;;;;;;3.80;2.97;;;;;;;28.74;65.27;99686.59;5111830;28;20609;-61
2023/08/11 09:20:04;;;;;;;4.97;3.30;;;;;;;28.84;65.65;99686.94;5111755;28;20201;-60
2023/08/11 09:22:32;;;;;;;4.00;3.08;;;;;;;28.91;70.33;99682.41;5111860;28;20280;-61
2023/08/11 09:24:59;;;;;;;3.13;2.70;;;;;;;29.00;68.65;99683.78;5111737;28;20205;-61
2023/08/11 09:27:29;;;;;;;3.47;2.95;;;;;;;29.02;65.93;99689.63;5111686;28;20205;-61
2023/08/11 09:29:56;;;;;;;3.10;2.72;;;;;;;29.25;69.39;99688.22;5111578;28;20213;-61
2023/08/11 09:32:24;;;;;;;2.65;2.45;;;;;;;29.25;66.30;99694.28;5111479;28;20221;-61
2023/08/11 09:34:50;;;;;;;2.80;2.50;;;;;;;29.20;58.00;99683.59;5111064;28;20202;-61
2023/08/11 09:37:18;;;;;;;2.88;2.42;;;;;;;29.48;67.94;99677.03;5111178;28;20284;-61
2023/08/11 09:39:45;;;;;;;5.32;2.25;;;;;;;29.67;58.15;99680.47;5111433;28;20205;-61
2023/08/11 09:42:14;;;;;;;2.33;2.00;;;;;;;29.62;56.06;99688.22;5110805;28;20658;-60
2023/08/11 09:44:44;;;;;;;3.08;2.75;;;;;;;29.39;58.39;99673.88;5111383;28;20494;-61
2023/08/11 09:47:12;;;;;;;3.08;2.50;;;;;;;29.55;60.64;99665.41;5111076;28;20198;-61
2023/08/11 09:49:40;;;;;;;3.38;2.45;;;;;;;29.69;70.00;99665.25;5110999;28;20236;-61
2023/08/11 09:52:08;;;;;;;2.50;2.28;;;;;;;29.45;54.57;99678.28;5111194;28;20197;-61
2023/08/11 09:54:35;;;;;;;2.97;2.50;;;;;;;29.44;55.68;99671.41;5111050;28;20236;-61
2023/08/11 09:57:03;;;;;;;2.50;1.90;;;;;;;29.53;54.83;99674.53;5110984;28;20208;-61
2023/08/11 09:59:30;;;;;;;2.80;2.13;;;;;;;29.74;50.19;99675.94;5111212;28;20208;-61
2023/08/11 10:02:01;;;;;;;2.67;1.85;;;;;;;29.96;53.49;99674.44;5110945;28;20197;-62
2023/08/11 10:04:35;;;;;;;2.85;2.10;;;;;;;30.03;51.38;99678.81;5110702;28;20193;-61
2023/08/11 10:07:07;;;;;;;3.35;2.17;;;;;;;30.30;56.79;99674.00;5110587;28;20674;-61
2023/08/11 10:09:36;;;;;;;2.78;1.90;;;;;;;30.09;48.33;99673.44;5110842;28;20213;-61
2023/08/11 10:12:05;;;;;;;2.17;1.85;;;;;;;29.95;54.18;99670.19;5110568;28;20193;-61
2023/08/11 10:14:35;;;;;;;2.90;2.20;;;;;;;29.67;47.86;99675.19;5110472;28;20229;-61
2023/08/11 10:17:04;;;;;;;2.05;1.80;;;;;;;29.83;48.94;99665.91;5110712;28;20569;-61
2023/08/11 10:19:31;;;;;;;2.08;1.77;;;;;;;29.89;51.06;99667.66;5110791;28;20193;-62
2023/08/11 10:21:58;;;;;;;3.10;1.55;;;;;;;29.74;45.54;99665.41;5110990;28;20202;-61
2023/08/11 10:24:26;;;;;;;1.70;1.55;;;;;;;30.19;54.47;99657.06;5110686;28;20709;-61
2023/08/11 10:26:53;;;;;;;1.73;1.50;;;;;;;30.39;49.52;99662.09;5110333;28;20208;-61
2023/08/11 10:29:21;;;;;;;2.40;1.50;;;;;;;30.51;49.42;99654.19;5110054;28;20225;-62
2023/08/11 10:31:55;;;;;;;1.60;1.50;;;;;;;30.49;44.94;99661.56;5109892;28;20206;-61
2023/08/11 10:34:25;;;;;;;1.80;1.70;;;;;;;30.48;45.77;99665.22;5110528;28;20341;-61
2023/08/11 10:36:54;;;;;;;1.50;1.40;;;;;;;30.70;43.56;99663.63;5109977;28;20196;-61
2023/08/11 10:39:21;;;;;;;1.67;1.50;;;;;;;30.65;43.10;99660.88;5109965;28;20194;-61
2023/08/11 10:41:50;;;;;;;1.50;1.40;;;;;;;30.94;42.76;99647.81;5110285;28;20229;-61
2023/08/11 10:44:18;;;;;;;1.55;1.45;;;;;;;31.14;46.68;99642.97;5110512;28;20317;-61
2023/08/11 10:46:48;;;;;;;1.38;1.27;;;;;;;30.89;45.29;99646.69;5110323;28;20201;-61
2023/08/11 10:49:33;;;;;;;1.63;1.52;;;;;;;30.75;45.33;99647.91;5109789;28;20229;-61
2023/08/11 10:52:02;;;;;;;1.48;1.38;;;;;;;30.96;43.62;99645.75;5110004;28;20689;-61
2023/08/11 10:54:29;;;;;;;1.42;1.30;;;;;;;30.65;45.83;99640.56;5110061;28;20733;-61
2023/08/11 10:57:00;;;;;;;2.10;1.40;;;;;;;30.57;42.91;99638.25;5109827;28;20204;-61
2023/08/11 10:59:29;;;;;;;1.35;1.25;;;;;;;30.63;46.07;99641.81;5109642;28;20202;-61
2023/08/11 11:01:59;;;;;;;2.78;1.48;;;;;;;30.86;45.17;99647.16;5109846;28;20205;-61
2023/08/11 11:04:30;;;;;;;1.98;1.50;;;;;;;30.56;46.00;99641.13;5110023;28;20202;-61
2023/08/11 11:06:59;;;;;;;1.50;1.40;;;;;;;30.52;40.55;99640.00;5109673;28;20193;-61
2023/08/11 11:09:27;;;;;;;1.70;1.60;;;;;;;30.71;43.01;99638.03;5109835;28;20487;-61
2023/08/11 11:11:54;;;;;;;1.50;1.40;;;;;;;30.99;40.22;99640.03;5109519;28;20198;-62
2023/08/11 11:14:22;;;;;;;2.40;1.30;;;;;;;31.19;42.39;99640.47;5109455;28;20212;-61
2023/08/11 11:16:49;;;;;;;2.10;1.65;;;;;;;31.21;40.79;99638.38;5108722;28;20205;-61
2023/08/11 11:19:16;;;;;;;1.90;1.60;;;;;;;30.99;43.04;99629.47;5109198;28;20193;-61
2023/08/11 11:21:43;;;;;;;1.55;1.45;;;;;;;30.96;43.25;99619.34;5109375;28;20425;-61
2023/08/11 11:24:11;;;;;;;3.17;1.58;;;;;;;31.04;39.23;99629.53;5108942;28;20208;-61
2023/08/11 11:26:38;;;;;;;1.70;1.60;;;;;;;31.29;44.30;99630.09;5109014;28;20209;-61
2023/08/11 11:29:06;;;;;;;4.03;1.40;;;;;;;31.16;42.59;99632.19;5108815;28;20328;-61